sensor_id;sensor_type;location;lat;lon;timestamp;P1;durP1;ratioP1;P2;durP2;ratioP2
59907;SDS011;61804;54.926;73.496;2023-05-14T00:02:04;4.90;;;3.65;;
59907;SDS011;61804;54.926;73.496;2023-05-14T00:04:32;3.75;;;3.45;;
59907;SDS011;61804;54.926;73.496;2023-05-14T00:07:00;5.05;;;4.00;;
59907;SDS011;61804;54.926;73.496;2023-05-14T00:09:28;5.20;;;4.43;;
59907;SDS011;61804;54.926;73.496;2023-05-14T00:11:57;4.75;;;4.25;;
59907;SDS011;61804;54.926;73.496;2023-05-14T00:14:24;7.07;;;4.70;;
59907;SDS011;61804;54.926;73.496;2023-05-14T00:16:52;7.90;;;4.97;;
59907;SDS011;61804;54.926;73.496;2023-05-14T00:19:20;4.25;;;3.80;;
59907;SDS011;61804;54.926;73.496;2023-05-14T00:21:48;5.50;;;4.63;;
59907;SDS011;61804;54.926;73.496;2023-05-14T00:24:16;3.55;;;3.25;;
59907;SDS011;61804;54.926;73.496;2023-05-14T00:26:43;6.15;;;4.40;;
59907;SDS011;61804;54.926;73.496;2023-05-14T00:29:11;8.60;;;5.20;;
59907;SDS011;61804;54.926;73.496;2023-05-14T00:31:39;4.47;;;4.07;;
59907;SDS011;61804;54.926;73.496;2023-05-14T00:34:07;6.35;;;4.55;;
59907;SDS011;61804;54.926;73.496;2023-05-14T00:36:34;8.57;;;5.18;;
59907;SDS011;61804;54.926;73.496;2023-05-14T00:39:02;6.97;;;4.82;;
59907;SDS011;61804;54.926;73.496;2023-05-14T00:41:30;5.18;;;4.68;;
59907;SDS011;61804;54.926;73.496;2023-05-14T00:43:58;7.13;;;5.22;;
59907;SDS011;61804;54.926;73.496;2023-05-14T00:46:26;5.85;;;4.68;;
59907;SDS011;61804;54.926;73.496;2023-05-14T00:48:54;6.05;;;4.90;;
59907;SDS011;61804;54.926;73.496;2023-05-14T00:51:22;5.20;;;4.72;;
59907;SDS011;61804;54.926;73.496;2023-05-14T00:53:49;5.60;;;4.65;;
59907;SDS011;61804;54.926;73.496;2023-05-14T00:56:18;8.52;;;6.53;;
59907;SDS011;61804;54.926;73.496;2023-05-14T00:58:46;5.80;;;4.50;;
59907;SDS011;61804;54.926;73.496;2023-05-14T01:01:15;8.00;;;4.40;;
59907;SDS011;61804;54.926;73.496;2023-05-14T01:03:43;5.53;;;4.55;;
59907;SDS011;61804;54.926;73.496;2023-05-14T01:09:02;6.60;;;5.68;;
59907;SDS011;61804;54.926;73.496;2023-05-14T01:16:45;7.95;;;6.25;;
59907;SDS011;61804;54.926;73.496;2023-05-14T01:19:25;9.63;;;5.82;;
59907;SDS011;61804;54.926;73.496;2023-05-14T01:21:56;6.38;;;5.18;;
59907;SDS011;61804;54.926;73.496;2023-05-14T01:24:24;10.15;;;5.55;;
59907;SDS011;61804;54.926;73.496;2023-05-14T01:26:53;11.75;;;6.82;;
59907;SDS011;61804;54.926;73.496;2023-05-14T01:29:25;7.15;;;4.72;;
59907;SDS011;61804;54.926;73.496;2023-05-14T01:31:53;9.13;;;6.57;;
59907;SDS011;61804;54.926;73.496;2023-05-14T01:34:22;10.38;;;7.10;;
59907;SDS011;61804;54.926;73.496;2023-05-14T01:36:50;7.43;;;6.38;;
59907;SDS011;61804;54.926;73.496;2023-05-14T01:39:18;13.15;;;7.20;;
59907;SDS011;61804;54.926;73.496;2023-05-14T01:41:47;13.40;;;7.53;;
59907;SDS011;61804;54.926;73.496;2023-05-14T01:44:15;8.23;;;7.05;;
59907;SDS011;61804;54.926;73.496;2023-05-14T01:46:43;11.00;;;6.45;;
59907;SDS011;61804;54.926;73.496;2023-05-14T01:49:12;10.95;;;7.53;;
59907;SDS011;61804;54.926;73.496;2023-05-14T01:51:39;9.68;;;6.22;;
59907;SDS011;61804;54.926;73.496;2023-05-14T01:54:07;13.30;;;8.02;;
59907;SDS011;61804;54.926;73.496;2023-05-14T01:56:34;9.07;;;6.28;;
59907;SDS011;61804;54.926;73.496;2023-05-14T01:59:01;7.28;;;5.32;;
59907;SDS011;61804;54.926;73.496;2023-05-14T02:01:28;7.00;;;6.40;;
59907;SDS011;61804;54.926;73.496;2023-05-14T02:03:56;7.10;;;5.95;;
59907;SDS011;61804;54.926;73.496;2023-05-14T02:06:24;8.55;;;7.38;;
59907;SDS011;61804;54.926;73.496;2023-05-14T02:08:52;7.03;;;6.13;;
59907;SDS011;61804;54.926;73.496;2023-05-14T02:11:20;8.32;;;6.97;;
59907;SDS011;61804;54.926;73.496;2023-05-14T02:13:47;10.65;;;6.15;;
59907;SDS011;61804;54.926;73.496;2023-05-14T02:16:15;7.95;;;6.28;;
59907;SDS011;61804;54.926;73.496;2023-05-14T02:18:42;7.93;;;6.00;;
59907;SDS011;61804;54.926;73.496;2023-05-14T02:21:09;10.68;;;6.43;;
59907;SDS011;61804;54.926;73.496;2023-05-14T02:23:41;9.55;;;6.88;;
59907;SDS011;61804;54.926;73.496;2023-05-14T02:26:09;9.77;;;5.85;;
59907;SDS011;61804;54.926;73.496;2023-05-14T02:28:38;7.45;;;6.72;;
59907;SDS011;61804;54.926;73.496;2023-05-14T02:31:06;7.10;;;6.38;;
59907;SDS011;61804;54.926;73.496;2023-05-14T02:33:34;8.30;;;6.47;;
59907;SDS011;61804;54.926;73.496;2023-05-14T02:36:02;8.52;;;6.45;;
59907;SDS011;61804;54.926;73.496;2023-05-14T02:38:31;7.43;;;6.70;;
59907;SDS011;61804;54.926;73.496;2023-05-14T02:40:58;6.97;;;6.30;;
59907;SDS011;61804;54.926;73.496;2023-05-14T02:43:26;8.73;;;6.30;;
59907;SDS011;61804;54.926;73.496;2023-05-14T02:45:53;9.88;;;6.88;;
59907;SDS011;61804;54.926;73.496;2023-05-14T02:48:20;7.30;;;6.28;;
59907;SDS011;61804;54.926;73.496;2023-05-14T02:50:49;9.15;;;8.07;;
59907;SDS011;61804;54.926;73.496;2023-05-14T02:53:17;8.45;;;7.13;;
59907;SDS011;61804;54.926;73.496;2023-05-14T02:55:46;9.90;;;6.93;;
59907;SDS011;61804;54.926;73.496;2023-05-14T02:58:14;9.30;;;7.35;;
59907;SDS011;61804;54.926;73.496;2023-05-14T03:00:42;11.05;;;8.25;;
59907;SDS011;61804;54.926;73.496;2023-05-14T03:03:10;8.27;;;7.30;;
59907;SDS011;61804;54.926;73.496;2023-05-14T03:05:46;9.68;;;7.72;;
59907;SDS011;61804;54.926;73.496;2023-05-14T03:08:14;7.63;;;6.82;;
59907;SDS011;61804;54.926;73.496;2023-05-14T03:10:42;8.93;;;7.20;;
59907;SDS011;61804;54.926;73.496;2023-05-14T03:13:09;7.18;;;6.47;;
59907;SDS011;61804;54.926;73.496;2023-05-14T03:15:37;9.73;;;7.25;;
59907;SDS011;61804;54.926;73.496;2023-05-14T03:18:07;8.40;;;7.57;;
59907;SDS011;61804;54.926;73.496;2023-05-14T03:20:34;10.40;;;6.85;;
59907;SDS011;61804;54.926;73.496;2023-05-14T03:23:02;7.07;;;6.38;;
59907;SDS011;61804;54.926;73.496;2023-05-14T03:25:29;7.70;;;6.90;;
59907;SDS011;61804;54.926;73.496;2023-05-14T03:27:58;8.77;;;5.90;;
59907;SDS011;61804;54.926;73.496;2023-05-14T03:30:25;9.10;;;6.45;;
59907;SDS011;61804;54.926;73.496;2023-05-14T03:32:53;8.98;;;7.45;;
59907;SDS011;61804;54.926;73.496;2023-05-14T03:35:20;9.23;;;7.32;;
59907;SDS011;61804;54.926;73.496;2023-05-14T03:37:47;8.80;;;6.55;;
59907;SDS011;61804;54.926;73.496;2023-05-14T03:40:15;7.45;;;6.70;;
59907;SDS011;61804;54.926;73.496;2023-05-14T03:42:43;9.43;;;6.88;;
59907;SDS011;61804;54.926;73.496;2023-05-14T03:45:11;12.63;;;7.32;;
59907;SDS011;61804;54.926;73.496;2023-05-14T03:47:38;10.45;;;9.18;;
59907;SDS011;61804;54.926;73.496;2023-05-14T03:50:06;8.93;;;8.10;;
59907;SDS011;61804;54.926;73.496;2023-05-14T03:52:34;9.82;;;7.55;;
59907;SDS011;61804;54.926;73.496;2023-05-14T03:55:02;10.00;;;7.93;;
59907;SDS011;61804;54.926;73.496;2023-05-14T03:57:33;14.15;;;8.35;;
59907;SDS011;61804;54.926;73.496;2023-05-14T04:00:05;11.00;;;7.60;;
59907;SDS011;61804;54.926;73.496;2023-05-14T04:02:43;8.48;;;6.55;;
59907;SDS011;61804;54.926;73.496;2023-05-14T04:05:12;7.75;;;6.78;;
59907;SDS011;61804;54.926;73.496;2023-05-14T04:07:44;8.40;;;6.65;;
59907;SDS011;61804;54.926;73.496;2023-05-14T04:10:13;8.25;;;7.40;;
59907;SDS011;61804;54.926;73.496;2023-05-14T04:12:42;9.70;;;8.27;;
59907;SDS011;61804;54.926;73.496;2023-05-14T04:15:10;9.63;;;7.00;;
59907;SDS011;61804;54.926;73.496;2023-05-14T04:17:38;10.77;;;7.60;;
59907;SDS011;61804;54.926;73.496;2023-05-14T04:20:06;9.77;;;6.93;;
59907;SDS011;61804;54.926;73.496;2023-05-14T04:22:34;8.15;;;7.45;;
59907;SDS011;61804;54.926;73.496;2023-05-14T04:25:02;8.93;;;6.75;;
59907;SDS011;61804;54.926;73.496;2023-05-14T04:27:29;7.45;;;6.10;;
59907;SDS011;61804;54.926;73.496;2023-05-14T04:30:01;6.07;;;5.53;;
59907;SDS011;61804;54.926;73.496;2023-05-14T04:32:31;6.97;;;6.20;;
59907;SDS011;61804;54.926;73.496;2023-05-14T04:35:00;9.55;;;8.43;;
59907;SDS011;61804;54.926;73.496;2023-05-14T04:37:31;10.13;;;8.40;;
59907;SDS011;61804;54.926;73.496;2023-05-14T04:40:03;9.68;;;8.45;;
59907;SDS011;61804;54.926;73.496;2023-05-14T04:42:32;12.75;;;10.52;;
59907;SDS011;61804;54.926;73.496;2023-05-14T04:44:59;12.60;;;11.40;;
59907;SDS011;61804;54.926;73.496;2023-05-14T04:47:27;13.32;;;12.05;;
59907;SDS011;61804;54.926;73.496;2023-05-14T04:49:55;10.88;;;8.27;;
59907;SDS011;61804;54.926;73.496;2023-05-14T04:52:26;10.48;;;7.22;;
59907;SDS011;61804;54.926;73.496;2023-05-14T04:54:55;7.18;;;6.53;;
59907;SDS011;61804;54.926;73.496;2023-05-14T04:57:29;7.22;;;5.47;;
59907;SDS011;61804;54.926;73.496;2023-05-14T04:59:57;5.85;;;5.35;;
59907;SDS011;61804;54.926;73.496;2023-05-14T05:02:26;5.55;;;4.88;;
59907;SDS011;61804;54.926;73.496;2023-05-14T05:04:53;9.60;;;4.75;;
59907;SDS011;61804;54.926;73.496;2023-05-14T05:07:21;4.95;;;4.55;;
59907;SDS011;61804;54.926;73.496;2023-05-14T05:09:48;5.32;;;4.18;;
59907;SDS011;61804;54.926;73.496;2023-05-14T05:12:17;6.93;;;6.07;;
59907;SDS011;61804;54.926;73.496;2023-05-14T05:14:50;6.80;;;5.13;;
59907;SDS011;61804;54.926;73.496;2023-05-14T05:17:20;15.32;;;5.05;;
59907;SDS011;61804;54.926;73.496;2023-05-14T05:19:49;5.47;;;3.78;;
59907;SDS011;61804;54.926;73.496;2023-05-14T05:22:17;6.07;;;5.25;;
59907;SDS011;61804;54.926;73.496;2023-05-14T05:24:46;7.50;;;5.45;;
59907;SDS011;61804;54.926;73.496;2023-05-14T05:27:13;5.97;;;5.38;;
59907;SDS011;61804;54.926;73.496;2023-05-14T05:29:41;9.02;;;5.63;;
59907;SDS011;61804;54.926;73.496;2023-05-14T05:32:15;5.18;;;4.78;;
59907;SDS011;61804;54.926;73.496;2023-05-14T05:34:42;9.50;;;4.63;;
59907;SDS011;61804;54.926;73.496;2023-05-14T05:37:10;5.05;;;4.22;;
59907;SDS011;61804;54.926;73.496;2023-05-14T05:39:39;7.25;;;5.32;;
59907;SDS011;61804;54.926;73.496;2023-05-14T05:42:11;11.73;;;6.03;;
59907;SDS011;61804;54.926;73.496;2023-05-14T05:44:40;16.30;;;6.47;;
59907;SDS011;61804;54.926;73.496;2023-05-14T05:47:08;12.63;;;4.65;;
59907;SDS011;61804;54.926;73.496;2023-05-14T05:49:35;7.47;;;5.00;;
59907;SDS011;61804;54.926;73.496;2023-05-14T05:52:03;4.63;;;3.80;;
59907;SDS011;61804;54.926;73.496;2023-05-14T05:54:31;5.30;;;3.45;;
59907;SDS011;61804;54.926;73.496;2023-05-14T05:56:59;9.57;;;4.25;;
59907;SDS011;61804;54.926;73.496;2023-05-14T05:59:27;31.95;;;16.85;;
59907;SDS011;61804;54.926;73.496;2023-05-14T06:01:54;12.52;;;7.82;;
59907;SDS011;61804;54.926;73.496;2023-05-14T06:04:22;6.40;;;4.30;;
59907;SDS011;61804;54.926;73.496;2023-05-14T06:06:49;24.35;;;4.18;;
59907;SDS011;61804;54.926;73.496;2023-05-14T06:09:16;16.92;;;5.60;;
59907;SDS011;61804;54.926;73.496;2023-05-14T06:11:44;30.88;;;5.70;;
59907;SDS011;61804;54.926;73.496;2023-05-14T06:14:11;8.32;;;5.47;;
59907;SDS011;61804;54.926;73.496;2023-05-14T06:16:39;5.47;;;3.83;;
59907;SDS011;61804;54.926;73.496;2023-05-14T06:19:07;8.13;;;4.68;;
59907;SDS011;61804;54.926;73.496;2023-05-14T06:21:34;14.70;;;6.38;;
59907;SDS011;61804;54.926;73.496;2023-05-14T06:24:01;4.40;;;4.00;;
59907;SDS011;61804;54.926;73.496;2023-05-14T06:26:29;9.32;;;5.75;;
59907;SDS011;61804;54.926;73.496;2023-05-14T06:28:57;4.43;;;3.35;;
59907;SDS011;61804;54.926;73.496;2023-05-14T06:31:26;10.20;;;5.68;;
59907;SDS011;61804;54.926;73.496;2023-05-14T06:33:56;5.18;;;4.43;;
59907;SDS011;61804;54.926;73.496;2023-05-14T06:36:24;5.60;;;4.18;;
59907;SDS011;61804;54.926;73.496;2023-05-14T06:38:51;5.40;;;4.38;;
59907;SDS011;61804;54.926;73.496;2023-05-14T06:41:19;12.45;;;4.82;;
59907;SDS011;61804;54.926;73.496;2023-05-14T06:43:47;10.70;;;5.80;;
59907;SDS011;61804;54.926;73.496;2023-05-14T06:46:14;17.75;;;5.22;;
59907;SDS011;61804;54.926;73.496;2023-05-14T06:48:42;33.50;;;14.35;;
59907;SDS011;61804;54.926;73.496;2023-05-14T06:51:11;10.15;;;3.13;;
59907;SDS011;61804;54.926;73.496;2023-05-14T06:53:39;23.17;;;6.95;;
59907;SDS011;61804;54.926;73.496;2023-05-14T06:56:07;13.85;;;5.25;;
59907;SDS011;61804;54.926;73.496;2023-05-14T06:58:34;6.70;;;5.43;;
59907;SDS011;61804;54.926;73.496;2023-05-14T07:01:02;6.20;;;4.43;;
59907;SDS011;61804;54.926;73.496;2023-05-14T07:03:33;8.90;;;4.32;;
59907;SDS011;61804;54.926;73.496;2023-05-14T07:06:03;7.40;;;4.07;;
59907;SDS011;61804;54.926;73.496;2023-05-14T07:08:30;5.32;;;4.82;;
59907;SDS011;61804;54.926;73.496;2023-05-14T07:10:59;9.35;;;3.35;;
59907;SDS011;61804;54.926;73.496;2023-05-14T07:13:27;6.82;;;4.07;;
59907;SDS011;61804;54.926;73.496;2023-05-14T07:15:54;3.88;;;3.47;;
59907;SDS011;61804;54.926;73.496;2023-05-14T07:18:22;8.38;;;3.85;;
59907;SDS011;61804;54.926;73.496;2023-05-14T07:20:51;6.10;;;3.30;;
59907;SDS011;61804;54.926;73.496;2023-05-14T07:23:19;9.48;;;5.30;;
59907;SDS011;61804;54.926;73.496;2023-05-14T07:25:46;6.90;;;3.95;;
59907;SDS011;61804;54.926;73.496;2023-05-14T07:28:15;9.50;;;5.38;;
59907;SDS011;61804;54.926;73.496;2023-05-14T07:30:43;6.18;;;4.57;;
59907;SDS011;61804;54.926;73.496;2023-05-14T07:33:10;4.57;;;4.15;;
59907;SDS011;61804;54.926;73.496;2023-05-14T07:35:40;16.05;;;4.20;;
59907;SDS011;61804;54.926;73.496;2023-05-14T07:38:10;12.77;;;4.78;;
59907;SDS011;61804;54.926;73.496;2023-05-14T07:40:37;22.30;;;6.03;;
59907;SDS011;61804;54.926;73.496;2023-05-14T07:43:06;4.63;;;4.20;;
59907;SDS011;61804;54.926;73.496;2023-05-14T07:45:37;4.53;;;3.60;;
59907;SDS011;61804;54.926;73.496;2023-05-14T07:48:05;4.03;;;2.97;;
59907;SDS011;61804;54.926;73.496;2023-05-14T07:50:32;5.53;;;3.85;;
59907;SDS011;61804;54.926;73.496;2023-05-14T07:53:00;5.13;;;4.63;;
59907;SDS011;61804;54.926;73.496;2023-05-14T07:55:27;8.95;;;4.65;;
59907;SDS011;61804;54.926;73.496;2023-05-14T07:57:56;28.40;;;4.80;;
59907;SDS011;61804;54.926;73.496;2023-05-14T08:00:24;6.93;;;3.80;;
59907;SDS011;61804;54.926;73.496;2023-05-14T08:02:51;12.35;;;6.95;;
59907;SDS011;61804;54.926;73.496;2023-05-14T08:05:18;13.70;;;5.82;;
59907;SDS011;61804;54.926;73.496;2023-05-14T08:07:46;7.03;;;4.45;;
59907;SDS011;61804;54.926;73.496;2023-05-14T08:10:16;21.02;;;7.15;;
59907;SDS011;61804;54.926;73.496;2023-05-14T08:12:43;7.40;;;4.97;;
59907;SDS011;61804;54.926;73.496;2023-05-14T08:15:11;31.40;;;15.52;;
59907;SDS011;61804;54.926;73.496;2023-05-14T08:18:03;12.43;;;7.28;;
59907;SDS011;61804;54.926;73.496;2023-05-14T08:20:31;5.38;;;4.03;;
59907;SDS011;61804;54.926;73.496;2023-05-14T08:22:59;9.20;;;5.22;;
59907;SDS011;61804;54.926;73.496;2023-05-14T08:25:27;28.75;;;10.52;;
59907;SDS011;61804;54.926;73.496;2023-05-14T08:27:55;11.88;;;4.93;;
59907;SDS011;61804;54.926;73.496;2023-05-14T08:30:23;18.98;;;7.68;;
59907;SDS011;61804;54.926;73.496;2023-05-14T08:32:51;13.73;;;4.88;;
59907;SDS011;61804;54.926;73.496;2023-05-14T08:35:19;39.35;;;7.22;;
59907;SDS011;61804;54.926;73.496;2023-05-14T08:37:48;24.77;;;8.77;;
59907;SDS011;61804;54.926;73.496;2023-05-14T08:40:17;9.88;;;5.53;;
59907;SDS011;61804;54.926;73.496;2023-05-14T08:42:44;14.88;;;6.90;;
59907;SDS011;61804;54.926;73.496;2023-05-14T08:45:20;50.17;;;9.73;;
59907;SDS011;61804;54.926;73.496;2023-05-14T08:50:28;8.38;;;6.50;;
59907;SDS011;61804;54.926;73.496;2023-05-14T08:52:55;10.88;;;6.60;;
59907;SDS011;61804;54.926;73.496;2023-05-14T08:55:23;19.35;;;8.05;;
59907;SDS011;61804;54.926;73.496;2023-05-14T08:57:51;9.90;;;5.57;;
59907;SDS011;61804;54.926;73.496;2023-05-14T09:00:19;7.60;;;5.22;;
59907;SDS011;61804;54.926;73.496;2023-05-14T09:02:47;8.93;;;5.45;;
59907;SDS011;61804;54.926;73.496;2023-05-14T09:05:15;14.70;;;6.38;;
59907;SDS011;61804;54.926;73.496;2023-05-14T09:07:47;18.80;;;6.50;;
59907;SDS011;61804;54.926;73.496;2023-05-14T09:10:15;9.25;;;6.00;;
59907;SDS011;61804;54.926;73.496;2023-05-14T09:12:45;6.85;;;5.85;;
59907;SDS011;61804;54.926;73.496;2023-05-14T09:15:12;11.23;;;6.15;;
59907;SDS011;61804;54.926;73.496;2023-05-14T09:17:40;8.88;;;7.05;;
59907;SDS011;61804;54.926;73.496;2023-05-14T09:20:09;12.90;;;6.97;;
59907;SDS011;61804;54.926;73.496;2023-05-14T09:22:38;5.95;;;4.32;;
59907;SDS011;61804;54.926;73.496;2023-05-14T09:25:08;8.63;;;5.00;;
59907;SDS011;61804;54.926;73.496;2023-05-14T09:27:38;7.65;;;5.85;;
59907;SDS011;61804;54.926;73.496;2023-05-14T09:30:07;7.80;;;3.97;;
59907;SDS011;61804;54.926;73.496;2023-05-14T09:32:38;7.22;;;4.55;;
59907;SDS011;61804;54.926;73.496;2023-05-14T09:35:08;3.45;;;3.00;;
59907;SDS011;61804;54.926;73.496;2023-05-14T09:37:42;17.70;;;6.03;;
59907;SDS011;61804;54.926;73.496;2023-05-14T09:40:10;29.75;;;9.75;;
59907;SDS011;61804;54.926;73.496;2023-05-14T09:42:39;44.30;;;5.95;;
59907;SDS011;61804;54.926;73.496;2023-05-14T09:45:09;7.82;;;4.22;;
59907;SDS011;61804;54.926;73.496;2023-05-14T09:47:38;12.50;;;6.57;;
59907;SDS011;61804;54.926;73.496;2023-05-14T09:50:06;10.80;;;4.75;;
59907;SDS011;61804;54.926;73.496;2023-05-14T09:52:34;10.60;;;2.70;;
59907;SDS011;61804;54.926;73.496;2023-05-14T09:55:01;5.40;;;3.83;;
59907;SDS011;61804;54.926;73.496;2023-05-14T09:57:28;9.73;;;4.78;;
59907;SDS011;61804;54.926;73.496;2023-05-14T09:59:56;4.90;;;3.58;;
59907;SDS011;61804;54.926;73.496;2023-05-14T10:02:36;37.40;;;5.32;;
59907;SDS011;61804;54.926;73.496;2023-05-14T10:05:06;14.23;;;4.00;;
59907;SDS011;61804;54.926;73.496;2023-05-14T10:07:53;8.40;;;3.72;;
59907;SDS011;61804;54.926;73.496;2023-05-14T10:10:21;14.52;;;4.47;;
59907;SDS011;61804;54.926;73.496;2023-05-14T10:12:56;9.13;;;5.07;;
59907;SDS011;61804;54.926;73.496;2023-05-14T10:15:47;9.52;;;5.32;;
59907;SDS011;61804;54.926;73.496;2023-05-14T10:18:15;22.27;;;6.10;;
59907;SDS011;61804;54.926;73.496;2023-05-14T10:20:50;3.83;;;2.90;;
59907;SDS011;61804;54.926;73.496;2023-05-14T10:23:19;34.17;;;11.07;;
59907;SDS011;61804;54.926;73.496;2023-05-14T10:25:47;10.98;;;4.18;;
59907;SDS011;61804;54.926;73.496;2023-05-14T10:28:16;10.63;;;5.35;;
59907;SDS011;61804;54.926;73.496;2023-05-14T10:30:44;23.40;;;11.00;;
59907;SDS011;61804;54.926;73.496;2023-05-14T10:33:12;22.67;;;6.38;;
59907;SDS011;61804;54.926;73.496;2023-05-14T10:38:33;11.20;;;4.30;;
59907;SDS011;61804;54.926;73.496;2023-05-14T10:41:04;6.03;;;4.35;;
59907;SDS011;61804;54.926;73.496;2023-05-14T10:43:38;6.28;;;2.78;;
59907;SDS011;61804;54.926;73.496;2023-05-14T10:46:07;20.25;;;6.35;;
59907;SDS011;61804;54.926;73.496;2023-05-14T10:48:38;10.40;;;4.38;;
59907;SDS011;61804;54.926;73.496;2023-05-14T10:51:09;6.35;;;4.45;;
59907;SDS011;61804;54.926;73.496;2023-05-14T10:53:38;21.88;;;6.50;;
59907;SDS011;61804;54.926;73.496;2023-05-14T10:56:10;12.20;;;3.92;;
59907;SDS011;61804;54.926;73.496;2023-05-14T10:58:42;4.22;;;2.78;;
59907;SDS011;61804;54.926;73.496;2023-05-14T11:01:10;27.67;;;6.28;;
59907;SDS011;61804;54.926;73.496;2023-05-14T11:03:42;19.30;;;7.78;;
59907;SDS011;61804;54.926;73.496;2023-05-14T11:06:12;39.75;;;9.68;;
59907;SDS011;61804;54.926;73.496;2023-05-14T11:08:41;36.90;;;8.88;;
59907;SDS011;61804;54.926;73.496;2023-05-14T11:11:11;10.10;;;4.70;;
59907;SDS011;61804;54.926;73.496;2023-05-14T11:13:40;24.05;;;7.50;;
59907;SDS011;61804;54.926;73.496;2023-05-14T11:16:08;30.65;;;7.22;;
59907;SDS011;61804;54.926;73.496;2023-05-14T11:18:36;16.15;;;6.28;;
59907;SDS011;61804;54.926;73.496;2023-05-14T11:21:04;19.02;;;9.40;;
59907;SDS011;61804;54.926;73.496;2023-05-14T11:23:31;7.55;;;4.47;;
59907;SDS011;61804;54.926;73.496;2023-05-14T11:26:04;18.00;;;9.82;;
59907;SDS011;61804;54.926;73.496;2023-05-14T11:28:35;31.35;;;8.25;;
59907;SDS011;61804;54.926;73.496;2023-05-14T11:31:04;20.85;;;8.75;;
59907;SDS011;61804;54.926;73.496;2023-05-14T11:33:34;34.47;;;8.38;;
59907;SDS011;61804;54.926;73.496;2023-05-14T11:36:03;30.88;;;6.35;;
59907;SDS011;61804;54.926;73.496;2023-05-14T11:38:32;12.68;;;3.78;;
59907;SDS011;61804;54.926;73.496;2023-05-14T11:40:59;40.83;;;7.85;;
59907;SDS011;61804;54.926;73.496;2023-05-14T11:43:29;14.95;;;5.18;;
59907;SDS011;61804;54.926;73.496;2023-05-14T11:45:56;35.90;;;8.27;;
59907;SDS011;61804;54.926;73.496;2023-05-14T11:48:23;15.27;;;4.78;;
59907;SDS011;61804;54.926;73.496;2023-05-14T11:50:51;20.10;;;7.88;;
59907;SDS011;61804;54.926;73.496;2023-05-14T11:53:26;33.40;;;8.00;;
59907;SDS011;61804;54.926;73.496;2023-05-14T11:55:53;17.02;;;5.10;;
59907;SDS011;61804;54.926;73.496;2023-05-14T11:58:23;14.55;;;6.28;;
59907;SDS011;61804;54.926;73.496;2023-05-14T12:00:51;16.98;;;8.10;;
59907;SDS011;61804;54.926;73.496;2023-05-14T12:03:19;13.38;;;5.70;;
59907;SDS011;61804;54.926;73.496;2023-05-14T12:05:56;30.13;;;11.70;;
59907;SDS011;61804;54.926;73.496;2023-05-14T12:08:29;9.07;;;5.03;;
59907;SDS011;61804;54.926;73.496;2023-05-14T12:10:58;10.00;;;4.95;;
59907;SDS011;61804;54.926;73.496;2023-05-14T12:13:30;32.83;;;5.22;;
59907;SDS011;61804;54.926;73.496;2023-05-14T12:15:59;36.75;;;9.80;;
59907;SDS011;61804;54.926;73.496;2023-05-14T12:18:30;28.67;;;7.88;;
59907;SDS011;61804;54.926;73.496;2023-05-14T12:21:02;26.70;;;9.13;;
59907;SDS011;61804;54.926;73.496;2023-05-14T12:23:31;37.53;;;8.10;;
59907;SDS011;61804;54.926;73.496;2023-05-14T12:26:02;56.40;;;9.65;;
59907;SDS011;61804;54.926;73.496;2023-05-14T12:28:31;32.08;;;7.53;;
59907;SDS011;61804;54.926;73.496;2023-05-14T12:31:00;19.23;;;3.80;;
59907;SDS011;61804;54.926;73.496;2023-05-14T12:33:27;34.50;;;10.80;;
59907;SDS011;61804;54.926;73.496;2023-05-14T12:36:00;21.80;;;6.78;;
59907;SDS011;61804;54.926;73.496;2023-05-14T12:38:30;8.43;;;5.32;;
59907;SDS011;61804;54.926;73.496;2023-05-14T12:40:57;8.77;;;4.32;;
59907;SDS011;61804;54.926;73.496;2023-05-14T12:43:26;14.70;;;4.90;;
59907;SDS011;61804;54.926;73.496;2023-05-14T12:45:58;8.88;;;4.80;;
59907;SDS011;61804;54.926;73.496;2023-05-14T12:48:26;24.98;;;9.60;;
59907;SDS011;61804;54.926;73.496;2023-05-14T12:50:54;55.40;;;12.05;;
59907;SDS011;61804;54.926;73.496;2023-05-14T12:53:21;9.73;;;5.28;;
59907;SDS011;61804;54.926;73.496;2023-05-14T12:55:49;55.60;;;11.98;;
59907;SDS011;61804;54.926;73.496;2023-05-14T12:58:17;22.52;;;7.60;;
59907;SDS011;61804;54.926;73.496;2023-05-14T13:00:45;10.40;;;5.22;;
59907;SDS011;61804;54.926;73.496;2023-05-14T13:03:12;14.50;;;6.38;;
59907;SDS011;61804;54.926;73.496;2023-05-14T13:05:40;35.35;;;9.38;;
59907;SDS011;61804;54.926;73.496;2023-05-14T13:08:08;50.60;;;11.57;;
59907;SDS011;61804;54.926;73.496;2023-05-14T13:10:37;28.40;;;10.00;;
59907;SDS011;61804;54.926;73.496;2023-05-14T13:13:06;14.48;;;6.50;;
59907;SDS011;61804;54.926;73.496;2023-05-14T13:15:36;38.58;;;10.55;;
59907;SDS011;61804;54.926;73.496;2023-05-14T13:18:06;33.38;;;9.32;;
59907;SDS011;61804;54.926;73.496;2023-05-14T13:20:35;28.67;;;9.38;;
59907;SDS011;61804;54.926;73.496;2023-05-14T13:23:03;35.80;;;10.63;;
59907;SDS011;61804;54.926;73.496;2023-05-14T13:25:32;37.22;;;9.23;;
59907;SDS011;61804;54.926;73.496;2023-05-14T13:28:03;48.38;;;12.73;;
59907;SDS011;61804;54.926;73.496;2023-05-14T13:30:32;16.35;;;7.78;;
59907;SDS011;61804;54.926;73.496;2023-05-14T13:33:08;63.38;;;13.68;;
59907;SDS011;61804;54.926;73.496;2023-05-14T13:35:37;92.68;;;18.33;;
59907;SDS011;61804;54.926;73.496;2023-05-14T13:38:06;74.15;;;16.05;;
59907;SDS011;61804;54.926;73.496;2023-05-14T13:40:35;46.95;;;12.25;;
59907;SDS011;61804;54.926;73.496;2023-05-14T13:43:02;60.40;;;15.32;;
59907;SDS011;61804;54.926;73.496;2023-05-14T13:45:30;41.55;;;13.75;;
59907;SDS011;61804;54.926;73.496;2023-05-14T13:47:58;14.32;;;9.23;;
59907;SDS011;61804;54.926;73.496;2023-05-14T13:50:25;23.58;;;8.27;;
59907;SDS011;61804;54.926;73.496;2023-05-14T13:52:55;49.53;;;13.35;;
59907;SDS011;61804;54.926;73.496;2023-05-14T13:55:25;72.22;;;18.25;;
59907;SDS011;61804;54.926;73.496;2023-05-14T13:57:52;69.70;;;15.55;;
59907;SDS011;61804;54.926;73.496;2023-05-14T14:00:22;65.65;;;12.95;;
59907;SDS011;61804;54.926;73.496;2023-05-14T14:03:10;43.80;;;10.80;;
59907;SDS011;61804;54.926;73.496;2023-05-14T14:05:39;53.53;;;9.98;;
59907;SDS011;61804;54.926;73.496;2023-05-14T14:08:08;66.65;;;11.52;;
59907;SDS011;61804;54.926;73.496;2023-05-14T14:10:38;25.33;;;7.50;;
59907;SDS011;61804;54.926;73.496;2023-05-14T14:13:08;46.78;;;9.00;;
59907;SDS011;61804;54.926;73.496;2023-05-14T14:15:37;40.83;;;8.48;;
59907;SDS011;61804;54.926;73.496;2023-05-14T14:18:08;31.67;;;5.63;;
59907;SDS011;61804;54.926;73.496;2023-05-14T14:20:36;39.03;;;10.18;;
59907;SDS011;61804;54.926;73.496;2023-05-14T14:23:04;94.82;;;43.67;;
59907;SDS011;61804;54.926;73.496;2023-05-14T14:25:36;42.38;;;21.77;;
59907;SDS011;61804;54.926;73.496;2023-05-14T14:28:03;65.97;;;17.75;;
59907;SDS011;61804;54.926;73.496;2023-05-14T14:30:31;43.58;;;11.95;;
59907;SDS011;61804;54.926;73.496;2023-05-14T14:33:00;44.35;;;13.10;;
59907;SDS011;61804;54.926;73.496;2023-05-14T14:35:28;36.45;;;9.82;;
59907;SDS011;61804;54.926;73.496;2023-05-14T14:37:58;42.03;;;11.90;;
59907;SDS011;61804;54.926;73.496;2023-05-14T14:40:26;64.43;;;13.27;;
59907;SDS011;61804;54.926;73.496;2023-05-14T14:42:55;43.00;;;9.98;;
59907;SDS011;61804;54.926;73.496;2023-05-14T14:45:24;56.05;;;13.02;;
59907;SDS011;61804;54.926;73.496;2023-05-14T14:47:51;60.60;;;14.75;;
59907;SDS011;61804;54.926;73.496;2023-05-14T14:50:56;65.60;;;17.30;;